sensor_id;sensor_type;location;lat;lon;timestamp;pressure;altitude;pressure_sealevel;temperature;humidity
42003;BME280;27693;50.506;30.832;2023-08-12T00:00:14;99768.31;;;18.46;96.89
42003;BME280;27693;50.506;30.832;2023-08-12T00:01:18;99766.27;;;18.38;97.01
42003;BME280;27693;50.506;30.832;2023-08-12T00:02:23;99776.20;;;18.23;97.56
42003;BME280;27693;50.506;30.832;2023-08-12T00:03:25;99776.07;;;18.25;98.00
42003;BME280;27693;50.506;30.832;2023-08-12T00:04:29;99771.19;;;18.31;97.81
42003;BME280;27693;50.506;30.832;2023-08-12T00:05:31;99763.74;;;18.48;97.86
42003;BME280;27693;50.506;30.832;2023-08-12T00:06:34;99764.48;;;18.39;97.16
42003;BME280;27693;50.506;30.832;2023-08-12T00:07:36;99777.05;;;18.35;97.04
42003;BME280;27693;50.506;30.832;2023-08-12T00:08:39;99767.44;;;18.23;97.34
42003;BME280;27693;50.506;30.832;2023-08-12T00:09:42;99768.77;;;18.28;97.41
42003;BME280;27693;50.506;30.832;2023-08-12T00:10:44;99767.12;;;18.39;97.13
42003;BME280;27693;50.506;30.832;2023-08-12T00:11:47;99765.44;;;18.38;96.73
42003;BME280;27693;50.506;30.832;2023-08-12T00:12:49;99769.25;;;18.33;96.57
42003;BME280;27693;50.506;30.832;2023-08-12T00:13:52;99765.53;;;18.25;97.02
42003;BME280;27693;50.506;30.832;2023-08-12T00:14:54;99766.27;;;18.15;97.28
42003;BME280;27693;50.506;30.832;2023-08-12T00:15:57;99760.40;;;18.23;97.58
42003;BME280;27693;50.506;30.832;2023-08-12T00:17:00;99757.98;;;18.20;97.10
42003;BME280;27693;50.506;30.832;2023-08-12T00:18:03;99762.66;;;18.16;97.13
42003;BME280;27693;50.506;30.832;2023-08-12T00:19:07;99755.48;;;18.18;97.21
42003;BME280;27693;50.506;30.832;2023-08-12T00:20:11;99760.40;;;18.23;97.04
42003;BME280;27693;50.506;30.832;2023-08-12T00:21:14;99763.77;;;18.25;96.63
42003;BME280;27693;50.506;30.832;2023-08-12T00:22:18;99763.51;;;18.17;97.08
42003;BME280;27693;50.506;30.832;2023-08-12T00:23:20;99763.51;;;18.17;97.08
42003;BME280;27693;50.506;30.832;2023-08-12T00:24:22;99763.98;;;18.22;96.74
42003;BME280;27693;50.506;30.832;2023-08-12T00:25:24;99751.30;;;18.16;96.69
42003;BME280;27693;50.506;30.832;2023-08-12T00:26:27;99746.03;;;18.16;96.85
42003;BME280;27693;50.506;30.832;2023-08-12T00:27:29;99751.64;;;18.23;96.65
42003;BME280;27693;50.506;30.832;2023-08-12T00:28:33;99748.66;;;18.27;96.33
42003;BME280;27693;50.506;30.832;2023-08-12T00:29:35;99757.06;;;18.32;95.86
42003;BME280;27693;50.506;30.832;2023-08-12T00:30:38;99754.05;;;18.14;96.30
42003;BME280;27693;50.506;30.832;2023-08-12T00:31:40;99747.94;;;18.14;96.58
42003;BME280;27693;50.506;30.832;2023-08-12T00:32:43;99760.75;;;18.18;96.41
42003;BME280;27693;50.506;30.832;2023-08-12T00:33:45;99756.18;;;18.09;96.49
42003;BME280;27693;50.506;30.832;2023-08-12T00:34:48;99753.92;;;18.04;97.09
42003;BME280;27693;50.506;30.832;2023-08-12T00:35:50;99758.47;;;18.14;97.11
42003;BME280;27693;50.506;30.832;2023-08-12T00:36:54;99756.34;;;18.19;96.36
42003;BME280;27693;50.506;30.832;2023-08-12T00:37:57;99762.05;;;18.13;96.09
42003;BME280;27693;50.506;30.832;2023-08-12T00:39:00;99759.32;;;18.14;96.31
42003;BME280;27693;50.506;30.832;2023-08-12T00:40:03;99752.12;;;18.05;96.27
42003;BME280;27693;50.506;30.832;2023-08-12T00:41:06;99757.77;;;18.12;96.41
42003;BME280;27693;50.506;30.832;2023-08-12T00:42:09;99753.20;;;18.14;96.17
42003;BME280;27693;50.506;30.832;2023-08-12T00:43:11;99744.13;;;18.18;95.84
42003;BME280;27693;50.506;30.832;2023-08-12T00:44:14;99740.77;;;18.16;95.65
42003;BME280;27693;50.506;30.832;2023-08-12T00:45:16;99740.77;;;18.16;95.65
42003;BME280;27693;50.506;30.832;2023-08-12T00:46:20;99753.67;;;18.08;96.05
42003;BME280;27693;50.506;30.832;2023-08-12T00:47:23;99760.40;;;18.12;96.10
42003;BME280;27693;50.506;30.832;2023-08-12T00:48:25;99756.91;;;18.23;95.93
42003;BME280;27693;50.506;30.832;2023-08-12T00:49:28;99752.12;;;18.16;95.72
42003;BME280;27693;50.506;30.832;2023-08-12T00:50:31;99754.88;;;18.15;95.72
42003;BME280;27693;50.506;30.832;2023-08-12T00:51:35;99751.77;;;18.10;96.22
42003;BME280;27693;50.506;30.832;2023-08-12T00:52:37;99771.63;;;18.14;96.10
42003;BME280;27693;50.506;30.832;2023-08-12T00:53:41;99757.51;;;18.03;96.49
42003;BME280;27693;50.506;30.832;2023-08-12T00:54:44;99752.34;;;18.02;96.71
42003;BME280;27693;50.506;30.832;2023-08-12T00:55:49;99745.05;;;18.06;96.89
42003;BME280;27693;50.506;30.832;2023-08-12T00:56:53;99753.67;;;18.08;96.41
42003;BME280;27693;50.506;30.832;2023-08-12T00:57:56;99748.41;;;18.08;96.48
42003;BME280;27693;50.506;30.832;2023-08-12T00:59:00;99750.09;;;18.09;96.53
42003;BME280;27693;50.506;30.832;2023-08-12T01:00:05;99750.31;;;18.06;96.60
42003;BME280;27693;50.506;30.832;2023-08-12T01:01:08;99753.20;;;18.02;97.16
42003;BME280;27693;50.506;30.832;2023-08-12T01:02:11;99741.72;;;18.03;97.11
42003;BME280;27693;50.506;30.832;2023-08-12T01:03:15;99741.47;;;18.07;97.15
42003;BME280;27693;50.506;30.832;2023-08-12T01:04:18;99747.45;;;17.97;97.27
42003;BME280;27693;50.506;30.832;2023-08-12T01:05:20;99754.15;;;18.01;97.37
42003;BME280;27693;50.506;30.832;2023-08-12T01:06:24;99756.05;;;17.99;97.40
42003;BME280;27693;50.506;30.832;2023-08-12T01:07:26;99743.14;;;17.96;97.55
42003;BME280;27693;50.506;30.832;2023-08-12T01:08:31;99748.88;;;18.01;97.54
42003;BME280;27693;50.506;30.832;2023-08-12T01:09:34;99757.73;;;18.00;97.18
42003;BME280;27693;50.506;30.832;2023-08-12T01:10:39;99742.44;;;18.17;96.65
42003;BME280;27693;50.506;30.832;2023-08-12T01:12:59;99744.28;;;17.92;96.64
42003;BME280;27693;50.506;30.832;2023-08-12T01:15:24;99741.42;;;17.84;97.98
42003;BME280;27693;50.506;30.832;2023-08-12T01:16:30;99751.09;;;17.83;97.83
42003;BME280;27693;50.506;30.832;2023-08-12T01:17:36;99750.22;;;18.18;97.14
42003;BME280;27693;50.506;30.832;2023-08-12T01:18:40;99748.19;;;18.11;96.35
42003;BME280;27693;50.506;30.832;2023-08-12T01:19:44;99749.61;;;18.15;96.13
42003;BME280;27693;50.506;30.832;2023-08-12T01:20:48;99754.88;;;18.15;96.08
42003;BME280;27693;50.506;30.832;2023-08-12T01:21:53;99752.59;;;18.10;95.88
42003;BME280;27693;50.506;30.832;2023-08-12T01:23:20;99754.28;;;18.11;95.86
42003;BME280;27693;50.506;30.832;2023-08-12T01:24:03;99749.03;;;18.34;96.01
42003;BME280;27693;50.506;30.832;2023-08-12T01:25:07;99758.72;;;18.22;94.88
42003;BME280;27693;50.506;30.832;2023-08-12T01:26:10;99760.48;;;17.99;96.23
42003;BME280;27693;50.506;30.832;2023-08-12T01:27:13;99752.16;;;17.81;96.94
42003;BME280;27693;50.506;30.832;2023-08-12T01:28:17;99753.86;;;17.93;97.54
42003;BME280;27693;50.506;30.832;2023-08-12T01:29:19;99758.42;;;17.91;97.00
42003;BME280;27693;50.506;30.832;2023-08-12T01:30:22;99755.99;;;17.77;97.37
42003;BME280;27693;50.506;30.832;2023-08-12T01:33:02;99751.90;;;18.08;97.35
42003;BME280;27693;50.506;30.832;2023-08-12T01:34:16;99744.82;;;17.97;96.37
42003;BME280;27693;50.506;30.832;2023-08-12T01:35:36;99750.56;;;18.02;96.61
42003;BME280;27693;50.506;30.832;2023-08-12T01:36:41;99747.45;;;17.97;96.48
42003;BME280;27693;50.506;30.832;2023-08-12T01:37:48;99746.68;;;17.84;96.75
42003;BME280;27693;50.506;30.832;2023-08-12T01:38:53;99754.31;;;17.76;97.15
42003;BME280;27693;50.506;30.832;2023-08-12T01:40:00;99745.00;;;17.83;97.75
42003;BME280;27693;50.506;30.832;2023-08-12T01:41:03;99757.44;;;17.92;97.22
42003;BME280;27693;50.506;30.832;2023-08-12T01:42:06;99754.78;;;17.69;97.06
42003;BME280;27693;50.506;30.832;2023-08-12T01:43:09;99738.59;;;17.63;97.71
42003;BME280;27693;50.506;30.832;2023-08-12T01:44:11;99740.34;;;17.51;98.05
42003;BME280;27693;50.506;30.832;2023-08-12T01:45:18;99743.86;;;17.63;98.68
42003;BME280;27693;50.506;30.832;2023-08-12T01:46:21;99738.05;;;17.82;97.90
42003;BME280;27693;50.506;30.832;2023-08-12T01:47:24;99740.51;;;17.96;96.10
42003;BME280;27693;50.506;30.832;2023-08-12T01:48:28;99749.35;;;17.95;95.50
42003;BME280;27693;50.506;30.832;2023-08-12T01:49:30;99742.71;;;17.78;96.03
42003;BME280;27693;50.506;30.832;2023-08-12T01:50:33;99736.98;;;17.84;96.28
42003;BME280;27693;50.506;30.832;2023-08-12T01:51:36;99740.63;;;17.95;95.44
42003;BME280;27693;50.506;30.832;2023-08-12T01:52:40;99740.95;;;17.90;95.22
42003;BME280;27693;50.506;30.832;2023-08-12T01:53:43;99741.84;;;17.66;96.15
42003;BME280;27693;50.506;30.832;2023-08-12T01:54:45;99737.28;;;17.57;96.20
42003;BME280;27693;50.506;30.832;2023-08-12T01:55:49;99739.73;;;17.47;96.80
42003;BME280;27693;50.506;30.832;2023-08-12T01:56:52;99744.66;;;17.52;97.28
42003;BME280;27693;50.506;30.832;2023-08-12T01:57:55;99743.73;;;17.64;96.40
42003;BME280;27693;50.506;30.832;2023-08-12T01:58:57;99746.31;;;17.42;96.41
42003;BME280;27693;50.506;30.832;2023-08-12T02:00:02;99753.09;;;17.33;97.10
42003;BME280;27693;50.506;30.832;2023-08-12T02:01:06;99748.87;;;17.30;97.75
42003;BME280;27693;50.506;30.832;2023-08-12T02:02:09;99745.82;;;17.36;97.35
42003;BME280;27693;50.506;30.832;2023-08-12T02:03:11;99739.83;;;17.34;96.89
42003;BME280;27693;50.506;30.832;2023-08-12T02:04:14;99752.73;;;17.37;96.52
42003;BME280;27693;50.506;30.832;2023-08-12T02:05:16;99746.37;;;17.64;96.74
42003;BME280;27693;50.506;30.832;2023-08-12T02:06:19;99757.72;;;17.53;94.72
42003;BME280;27693;50.506;30.832;2023-08-12T02:07:22;99755.18;;;17.52;94.47
42003;BME280;27693;50.506;30.832;2023-08-12T02:08:24;99755.52;;;17.47;94.69
42003;BME280;27693;50.506;30.832;2023-08-12T02:09:26;99755.20;;;17.28;94.85
42003;BME280;27693;50.506;30.832;2023-08-12T02:10:29;99752.23;;;17.32;95.22
42003;BME280;27693;50.506;30.832;2023-08-12T02:11:32;99746.45;;;17.16;95.65
42003;BME280;27693;50.506;30.832;2023-08-12T02:12:34;99749.41;;;17.11;95.61
42003;BME280;27693;50.506;30.832;2023-08-12T02:13:37;99748.76;;;17.56;95.83
42003;BME280;27693;50.506;30.832;2023-08-12T02:14:39;99752.73;;;17.37;93.92
42003;BME280;27693;50.506;30.832;2023-08-12T02:15:43;99745.30;;;17.31;94.79
42003;BME280;27693;50.506;30.832;2023-08-12T02:16:48;99754.91;;;17.44;94.31
42003;BME280;27693;50.506;30.832;2023-08-12T02:17:50;99748.63;;;17.22;94.13
42003;BME280;27693;50.506;30.832;2023-08-12T02:18:53;99752.57;;;17.03;94.87
42003;BME280;27693;50.506;30.832;2023-08-12T02:19:56;99747.93;;;17.07;95.08
42003;BME280;27693;50.506;30.832;2023-08-12T02:20:59;99753.09;;;17.08;95.31
42003;BME280;27693;50.506;30.832;2023-08-12T02:22:02;99753.63;;;17.01;95.56
42003;BME280;27693;50.506;30.832;2023-08-12T02:23:06;99750.51;;;16.96;95.41
42003;BME280;27693;50.506;30.832;2023-08-12T02:24:08;99756.17;;;17.02;95.32
42003;BME280;27693;50.506;30.832;2023-08-12T02:25:12;99756.27;;;17.25;94.93
42003;BME280;27693;50.506;30.832;2023-08-12T02:26:15;99757.98;;;17.37;94.57
42003;BME280;27693;50.506;30.832;2023-08-12T02:27:18;99753.70;;;17.36;93.96
42003;BME280;27693;50.506;30.832;2023-08-12T02:28:21;99762.27;;;17.27;93.12
42003;BME280;27693;50.506;30.832;2023-08-12T02:29:25;99751.86;;;17.01;94.04
42003;BME280;27693;50.506;30.832;2023-08-12T02:30:29;99750.06;;;17.02;94.69
42003;BME280;27693;50.506;30.832;2023-08-12T02:31:33;99747.22;;;17.05;94.61
42003;BME280;27693;50.506;30.832;2023-08-12T02:32:35;99743.98;;;17.01;95.62
42003;BME280;27693;50.506;30.832;2023-08-12T02:33:39;99743.98;;;17.01;95.62
42003;BME280;27693;50.506;30.832;2023-08-12T02:34:43;99751.91;;;17.13;94.62
42003;BME280;27693;50.506;30.832;2023-08-12T02:35:45;99740.61;;;16.99;94.48
42003;BME280;27693;50.506;30.832;2023-08-12T02:36:48;99750.63;;;16.94;94.93
42003;BME280;27693;50.506;30.832;2023-08-12T02:37:51;99750.64;;;17.18;95.36
42003;BME280;27693;50.506;30.832;2023-08-12T02:38:54;99741.61;;;17.09;94.27
42003;BME280;27693;50.506;30.832;2023-08-12T02:39:57;99746.86;;;17.09;94.34
42003;BME280;27693;50.506;30.832;2023-08-12T02:40:59;99749.12;;;17.27;94.39
42003;BME280;27693;50.506;30.832;2023-08-12T02:42:05;99740.59;;;17.48;92.97
42003;BME280;27693;50.506;30.832;2023-08-12T02:43:07;99746.66;;;17.13;93.11
42003;BME280;27693;50.506;30.832;2023-08-12T02:44:09;99747.48;;;17.13;93.96
42003;BME280;27693;50.506;30.832;2023-08-12T02:45:12;99750.18;;;17.00;94.78
42003;BME280;27693;50.506;30.832;2023-08-12T02:46:15;99751.02;;;17.25;93.88
42003;BME280;27693;50.506;30.832;2023-08-12T02:47:17;99742.84;;;17.17;93.56
42003;BME280;27693;50.506;30.832;2023-08-12T02:48:21;99746.86;;;17.09;93.40
42003;BME280;27693;50.506;30.832;2023-08-12T02:49:23;99745.21;;;17.08;94.10
42003;BME280;27693;50.506;30.832;2023-08-12T02:50:26;99747.88;;;16.83;94.67
42003;BME280;27693;50.506;30.832;2023-08-12T02:51:28;99750.30;;;16.86;95.39
42003;BME280;27693;50.506;30.832;2023-08-12T02:52:31;99747.14;;;16.93;95.05
42003;BME280;27693;50.506;30.832;2023-08-12T02:53:33;99742.74;;;16.94;94.86
42003;BME280;27693;50.506;30.832;2023-08-12T02:54:36;99742.30;;;16.87;94.73
42003;BME280;27693;50.506;30.832;2023-08-12T02:55:39;99745.30;;;17.31;95.12
42003;BME280;27693;50.506;30.832;2023-08-12T02:56:41;99752.36;;;17.06;93.41
42003;BME280;27693;50.506;30.832;2023-08-12T02:57:44;99753.63;;;17.01;93.72
42003;BME280;27693;50.506;30.832;2023-08-12T02:58:46;99746.31;;;16.93;94.21
42003;BME280;27693;50.506;30.832;2023-08-12T02:59:49;99755.77;;;16.96;94.28
42003;BME280;27693;50.506;30.832;2023-08-12T03:00:54;99744.42;;;16.95;94.75
42003;BME280;27693;50.506;30.832;2023-08-12T03:01:57;99744.42;;;16.95;94.75
42003;BME280;27693;50.506;30.832;2023-08-12T03:02:59;99746.94;;;16.97;94.94
42003;BME280;27693;50.506;30.832;2023-08-12T03:04:02;99748.97;;;17.53;94.17
42003;BME280;27693;50.506;30.832;2023-08-12T03:05:06;99743.64;;;17.66;92.50
42003;BME280;27693;50.506;30.832;2023-08-12T03:06:08;99745.82;;;17.36;90.91
42003;BME280;27693;50.506;30.832;2023-08-12T03:07:11;99749.70;;;17.55;90.83
42003;BME280;27693;50.506;30.832;2023-08-12T03:08:15;99742.34;;;17.12;91.68
42003;BME280;27693;50.506;30.832;2023-08-12T03:09:18;99745.13;;;16.97;92.51
42003;BME280;27693;50.506;30.832;2023-08-12T03:10:20;99740.49;;;17.01;93.18
42003;BME280;27693;50.506;30.832;2023-08-12T03:11:22;99748.29;;;17.02;92.90
42003;BME280;27693;50.506;30.832;2023-08-12T03:12:27;99742.91;;;17.04;93.31
42003;BME280;27693;50.506;30.832;2023-08-12T03:13:30;99740.41;;;17.02;93.02
42003;BME280;27693;50.506;30.832;2023-08-12T03:14:33;99738.98;;;17.09;93.17
42003;BME280;27693;50.506;30.832;2023-08-12T03:15:41;99739.55;;;16.89;93.35
42003;BME280;27693;50.506;30.832;2023-08-12T03:16:45;99737.72;;;16.78;93.89
42003;BME280;27693;50.506;30.832;2023-08-12T03:17:48;99742.53;;;16.84;94.28
42003;BME280;27693;50.506;30.832;2023-08-12T03:18:50;99735.92;;;16.79;94.26
42003;BME280;27693;50.506;30.832;2023-08-12T03:19:53;99746.37;;;16.67;94.88
42003;BME280;27693;50.506;30.832;2023-08-12T03:20:56;99736.22;;;16.87;95.14
42003;BME280;27693;50.506;30.832;2023-08-12T03:21:59;99740.33;;;17.15;94.32
42003;BME280;27693;50.506;30.832;2023-08-12T03:23:04;99738.98;;;17.09;93.23
42003;BME280;27693;50.506;30.832;2023-08-12T03:24:07;99745.69;;;16.76;94.19
42003;BME280;27693;50.506;30.832;2023-08-12T03:25:09;99747.38;;;16.77;94.95
42003;BME280;27693;50.506;30.832;2023-08-12T03:26:12;99746.75;;;16.74;94.70
42003;BME280;27693;50.506;30.832;2023-08-12T03:27:16;99750.64;;;16.68;95.01
42003;BME280;27693;50.506;30.832;2023-08-12T03:28:19;99743.12;;;16.64;95.46
42003;BME280;27693;50.506;30.832;2023-08-12T03:29:22;99745.95;;;16.60;95.69
42003;BME280;27693;50.506;30.832;2023-08-12T03:30:25;99749.43;;;16.61;96.04
42003;BME280;27693;50.506;30.832;2023-08-12T03:31:28;99742.37;;;16.61;95.87
42003;BME280;27693;50.506;30.832;2023-08-12T03:32:30;99746.06;;;16.59;96.00
42003;BME280;27693;50.506;30.832;2023-08-12T03:33:34;99752.27;;;16.58;96.16
42003;BME280;27693;50.506;30.832;2023-08-12T03:34:38;99752.27;;;16.58;96.16
42003;BME280;27693;50.506;30.832;2023-08-12T03:35:44;99758.76;;;16.65;96.06
42003;BME280;27693;50.506;30.832;2023-08-12T03:36:48;99750.58;;;16.57;95.97
42003;BME280;27693;50.506;30.832;2023-08-12T03:37:53;99756.46;;;16.48;96.15
42003;BME280;27693;50.506;30.832;2023-08-12T03:38:57;99760.06;;;16.47;96.52
42003;BME280;27693;50.506;30.832;2023-08-12T03:40:01;99745.25;;;16.45;96.78
42003;BME280;27693;50.506;30.832;2023-08-12T03:41:05;99746.82;;;16.35;97.04
42003;BME280;27693;50.506;30.832;2023-08-12T03:42:09;99749.56;;;16.47;96.72
42003;BME280;27693;50.506;30.832;2023-08-12T03:43:13;99754.06;;;16.44;96.70
42003;BME280;27693;50.506;30.832;2023-08-12T03:44:17;99748.39;;;16.38;96.88
42003;BME280;27693;50.506;30.832;2023-08-12T03:45:19;99745.95;;;16.48;96.54
42003;BME280;27693;50.506;30.832;2023-08-12T03:46:22;99753.33;;;16.42;96.30
42003;BME280;27693;50.506;30.832;2023-08-12T03:47:25;99747.88;;;16.33;96.75
42003;BME280;27693;50.506;30.832;2023-08-12T03:48:27;99746.81;;;16.48;96.63
42003;BME280;27693;50.506;30.832;2023-08-12T03:49:31;99752.61;;;16.40;96.37
42003;BME280;27693;50.506;30.832;2023-08-12T03:50:36;99741.17;;;16.16;97.19
42003;BME280;27693;50.506;30.832;2023-08-12T03:51:38;99746.95;;;16.08;98.04
42003;BME280;27693;50.506;30.832;2023-08-12T03:52:40;99742.23;;;16.26;97.87
42003;BME280;27693;50.506;30.832;2023-08-12T03:53:43;99755.46;;;16.11;97.84
42003;BME280;27693;50.506;30.832;2023-08-12T03:54:46;99752.29;;;16.06;98.25
42003;BME280;27693;50.506;30.832;2023-08-12T03:55:49;99738.77;;;16.00;98.40
42003;BME280;27693;50.506;30.832;2023-08-12T03:56:52;99738.77;;;16.00;98.40
42003;BME280;27693;50.506;30.832;2023-08-12T03:57:55;99748.74;;;15.94;99.01
42003;BME280;27693;50.506;30.832;2023-08-12T03:58:57;99755.75;;;15.94;99.34
42003;BME280;27693;50.506;30.832;2023-08-12T04:00:00;99756.19;;;16.01;99.30
42003;BME280;27693;50.506;30.832;2023-08-12T04:01:04;99749.56;;;15.95;99.26
42003;BME280;27693;50.506;30.832;2023-08-12T04:02:06;99740.34;;;16.02;99.22
42003;BME280;27693;50.506;30.832;2023-08-12T04:03:09;99745.06;;;15.97;99.26
42003;BME280;27693;50.506;30.832;2023-08-12T04:04:11;99745.06;;;15.97;99.26
42003;BME280;27693;50.506;30.832;2023-08-12T04:05:16;99743.28;;;16.10;98.85
42003;BME280;27693;50.506;30.832;2023-08-12T04:06:18;99741.40;;;16.12;98.43
42003;BME280;27693;50.506;30.832;2023-08-12T04:07:21;99757.77;;;16.16;98.49
42003;BME280;27693;50.506;30.832;2023-08-12T04:08:24;99754.91;;;16.06;98.29
42003;BME280;27693;50.506;30.832;2023-08-12T04:09:27;99746.52;;;16.01;98.91
42003;BME280;27693;50.506;30.832;2023-08-12T04:10:30;99745.27;;;16.07;98.62
42003;BME280;27693;50.506;30.832;2023-08-12T04:11:32;99734.89;;;16.05;98.66
42003;BME280;27693;50.506;30.832;2023-08-12T04:12:35;99756.41;;;16.10;98.70
42003;BME280;27693;50.506;30.832;2023-08-12T04:13:37;99743.81;;;16.03;98.76
42003;BME280;27693;50.506;30.832;2023-08-12T04:14:39;99737.28;;;16.08;98.66
42003;BME280;27693;50.506;30.832;2023-08-12T04:15:47;99748.63;;;15.96;98.82
42003;BME280;27693;50.506;30.832;2023-08-12T04:16:49;99748.63;;;15.96;98.82
42003;BME280;27693;50.506;30.832;2023-08-12T04:17:52;99751.88;;;16.00;99.21
42003;BME280;27693;50.506;30.832;2023-08-12T04:18:54;99749.87;;;15.90;99.43
42003;BME280;27693;50.506;30.832;2023-08-12T04:19:57;99755.04;;;15.92;99.51
42003;BME280;27693;50.506;30.832;2023-08-12T04:20:59;99750.42;;;15.95;99.48
42003;BME280;27693;50.506;30.832;2023-08-12T04:22:02;99752.53;;;16.16;98.90
42003;BME280;27693;50.506;30.832;2023-08-12T04:23:04;99753.97;;;16.07;98.62
42003;BME280;27693;50.506;30.832;2023-08-12T04:24:08;99752.30;;;15.93;98.97
42003;BME280;27693;50.506;30.832;2023-08-12T04:25:10;99753.85;;;15.83;99.38
42003;BME280;27693;50.506;30.832;2023-08-12T04:26:13;99748.69;;;15.81;99.90
42003;BME280;27693;50.506;30.832;2023-08-12T04:27:16;99749.78;;;16.05;99.54
42003;BME280;27693;50.506;30.832;2023-08-12T04:28:19;99750.64;;;16.05;98.66
42003;BME280;27693;50.506;30.832;2023-08-12T04:29:23;99749.27;;;16.00;99.25
42003;BME280;27693;50.506;30.832;2023-08-12T04:30:26;99754.38;;;16.27;98.66
42003;BME280;27693;50.506;30.832;2023-08-12T04:31:30;99759.03;;;16.23;97.90
42003;BME280;27693;50.506;30.832;2023-08-12T04:32:32;99759.03;;;16.23;97.90
42003;BME280;27693;50.506;30.832;2023-08-12T04:33:35;99763.66;;;16.20;97.81
42003;BME280;27693;50.506;30.832;2023-08-12T04:34:38;99751.36;;;16.20;97.44
42003;BME280;27693;50.506;30.832;2023-08-12T04:35:41;99745.28;;;16.20;98.07
42003;BME280;27693;50.506;30.832;2023-08-12T04:36:45;99745.37;;;16.44;98.29
42003;BME280;27693;50.506;30.832;2023-08-12T04:37:47;99753.75;;;16.49;96.75
42003;BME280;27693;50.506;30.832;2023-08-12T04:38:49;99751.95;;;16.50;95.98
42003;BME280;27693;50.506;30.832;2023-08-12T04:39:51;99751.02;;;16.51;97.05
42003;BME280;27693;50.506;30.832;2023-08-12T04:40:54;99753.25;;;16.94;95.60
42003;BME280;27693;50.506;30.832;2023-08-12T04:41:58;99748.50;;;16.86;94.46
42003;BME280;27693;50.506;30.832;2023-08-12T04:43:01;99767.34;;;16.93;93.93
42003;BME280;27693;50.506;30.832;2023-08-12T04:44:05;99745.13;;;16.97;94.17
42003;BME280;27693;50.506;30.832;2023-08-12T04:45:08;99771.33;;;16.99;92.81
42003;BME280;27693;50.506;30.832;2023-08-12T04:46:11;99759.51;;;17.04;92.99
42003;BME280;27693;50.506;30.832;2023-08-12T04:47:14;99750.30;;;16.86;92.95
42003;BME280;27693;50.506;30.832;2023-08-12T04:48:16;99754.75;;;16.72;93.33
42003;BME280;27693;50.506;30.832;2023-08-12T04:49:19;99759.39;;;16.56;94.41
42003;BME280;27693;50.506;30.832;2023-08-12T04:50:23;99754.70;;;16.35;95.27
42003;BME280;27693;50.506;30.832;2023-08-12T04:51:25;99748.30;;;16.39;95.74
42003;BME280;27693;50.506;30.832;2023-08-12T04:52:27;99743.69;;;16.30;96.02
42003;BME280;27693;50.506;30.832;2023-08-12T04:53:33;99752.27;;;16.45;96.08
42003;BME280;27693;50.506;30.832;2023-08-12T04:54:35;99749.94;;;16.66;95.77
42003;BME280;27693;50.506;30.832;2023-08-12T04:55:37;99765.77;;;16.77;94.69
42003;BME280;27693;50.506;30.832;2023-08-12T04:56:40;99750.95;;;16.76;94.52
42003;BME280;27693;50.506;30.832;2023-08-12T04:57:43;99758.51;;;16.94;94.24
42003;BME280;27693;50.506;30.832;2023-08-12T04:58:45;99753.92;;;17.33;93.14
42003;BME280;27693;50.506;30.832;2023-08-12T04:59:47;99762.61;;;17.58;90.99
42003;BME280;27693;50.506;30.832;2023-08-12T05:00:50;99762.75;;;17.32;90.27
42003;BME280;27693;50.506;30.832;2023-08-12T05:01:57;99764.16;;;17.25;90.62
42003;BME280;27693;50.506;30.832;2023-08-12T05:03:02;99771.55;;;17.20;91.31
42003;BME280;27693;50.506;30.832;2023-08-12T05:04:06;99760.81;;;16.99;91.82
42003;BME280;27693;50.506;30.832;2023-08-12T05:05:09;99765.00;;;17.01;92.47
42003;BME280;27693;50.506;30.832;2023-08-12T05:06:12;99771.08;;;16.89;92.83
42003;BME280;27693;50.506;30.832;2023-08-12T05:07:15;99763.70;;;17.07;94.02
42003;BME280;27693;50.506;30.832;2023-08-12T05:08:18;99772.12;;;17.12;92.74
42003;BME280;27693;50.506;30.832;2023-08-12T05:09:22;99758.69;;;16.91;92.83
42003;BME280;27693;50.506;30.832;2023-08-12T05:10:24;99775.60;;;17.00;92.81
42003;BME280;27693;50.506;30.832;2023-08-12T05:11:27;99767.58;;;16.64;94.03
42003;BME280;27693;50.506;30.832;2023-08-12T05:12:29;99762.75;;;16.71;94.34
42003;BME280;27693;50.506;30.832;2023-08-12T05:13:33;99759.36;;;16.82;94.52
42003;BME280;27693;50.506;30.832;2023-08-12T05:14:36;99763.11;;;16.90;94.34
42003;BME280;27693;50.506;30.832;2023-08-12T05:15:40;99761.69;;;16.73;94.30
42003;BME280;27693;50.506;30.832;2023-08-12T05:16:44;99752.19;;;16.84;94.34
42003;BME280;27693;50.506;30.832;2023-08-12T05:17:46;99758.27;;;16.97;93.67
42003;BME280;27693;50.506;30.832;2023-08-12T05:18:50;99743.53;;;17.07;92.98
42003;BME280;27693;50.506;30.832;2023-08-12T05:19:55;99762.84;;;17.19;92.07
42003;BME280;27693;50.506;30.832;2023-08-12T05:20:58;99749.12;;;16.90;92.86
42003;BME280;27693;50.506;30.832;2023-08-12T05:22:01;99764.82;;;16.79;93.26
42003;BME280;27693;50.506;30.832;2023-08-12T05:23:03;99743.80;;;16.79;94.32
42003;BME280;27693;50.506;30.832;2023-08-12T05:24:07;99753.35;;;17.17;93.45
42003;BME280;27693;50.506;30.832;2023-08-12T05:25:09;99758.69;;;17.28;92.41
42003;BME280;27693;50.506;30.832;2023-08-12T05:26:13;99754.91;;;17.44;91.62
42003;BME280;27693;50.506;30.832;2023-08-12T05:27:15;99762.13;;;17.53;90.85
42003;BME280;27693;50.506;30.832;2023-08-12T05:28:20;99763.88;;;17.17;90.66
42003;BME280;27693;50.506;30.832;2023-08-12T05:29:22;99766.80;;;16.88;91.96
42003;BME280;27693;50.506;30.832;2023-08-12T05:30:25;99762.25;;;16.90;93.59
42003;BME280;27693;50.506;30.832;2023-08-12T05:31:28;99772.20;;;16.73;93.25
42003;BME280;27693;50.506;30.832;2023-08-12T05:32:30;99760.00;;;16.72;94.93
42003;BME280;27693;50.506;30.832;2023-08-12T05:33:33;99760.00;;;17.09;94.18
42003;BME280;27693;50.506;30.832;2023-08-12T05:34:36;99767.23;;;17.19;92.99